createdAt,value
2022-09-21T00:04:33.867Z,1.50
2022-09-21T00:09:31.007Z,1.80
2022-09-21T00:15:28.733Z,1.73
2022-09-21T00:20:27.633Z,1.50
2022-09-21T00:25:24.684Z,1.23
2022-09-21T00:30:22.840Z,1.23
2022-09-21T00:35:20.047Z,1.30
2022-09-21T00:40:17.930Z,1.30
2022-09-21T00:45:22.484Z,1.50
2022-09-21T00:50:31.511Z,1.20
2022-09-21T00:55:32.922Z,1.20
2022-09-21T01:00:49.369Z,1.60
2022-09-21T01:05:49.190Z,1.55
2022-09-21T01:17:02.291Z,1.63
2022-09-21T01:22:11.174Z,1.75
2022-09-21T01:27:43.976Z,1.70
2022-09-21T01:32:46.678Z,1.50
2022-09-21T01:37:47.798Z,2.13
2022-09-21T01:42:46.629Z,1.63
2022-09-21T01:47:50.764Z,1.67
2022-09-21T01:53:02.044Z,1.38
2022-09-21T01:58:11.483Z,1.67
2022-09-21T02:03:16.067Z,1.83
2022-09-21T02:08:13.418Z,2.03
2022-09-21T02:13:13.795Z,2.20
2022-09-21T02:18:21.467Z,1.60
2022-09-21T02:23:23.918Z,1.77
2022-09-21T02:28:34.757Z,1.73
2022-09-21T02:33:40.577Z,1.60
2022-09-21T02:38:47.695Z,1.70
2022-09-21T02:43:51.326Z,2.00
2022-09-21T02:48:56.449Z,1.90
2022-09-21T02:53:55.425Z,2.22
2022-09-21T02:58:55.281Z,2.25
2022-09-21T03:03:53.062Z,2.20
2022-09-21T03:08:50.644Z,2.47
2022-09-21T03:13:52.517Z,1.88
2022-09-21T03:19:04.118Z,2.40
2022-09-21T03:24:02.075Z,2.55
2022-09-21T03:28:59.442Z,2.63
2022-09-21T03:33:57.135Z,2.42
2022-09-21T03:38:57.514Z,3.33
2022-09-21T03:43:54.600Z,2.58
2022-09-21T03:48:56.722Z,2.30
2022-09-21T03:53:55.325Z,2.17
2022-09-21T03:58:55.387Z,2.53
2022-09-21T04:03:55.823Z,2.90
2022-09-21T04:08:54.175Z,3.13
2022-09-21T04:13:57.507Z,3.63
2022-09-21T04:18:56.118Z,3.03
2022-09-21T04:24:03.403Z,3.97
2022-09-21T04:29:25.394Z,4.05
2022-09-21T04:35:40.053Z,5.38
2022-09-21T04:46:41.049Z,3.08
2022-09-21T04:51:51.196Z,4.25
2022-09-21T04:56:53.993Z,4.75
2022-09-21T05:02:11.278Z,3.97
2022-09-21T05:08:23.192Z,2.55
2022-09-21T05:13:27.842Z,2.78
2022-09-21T05:18:36.271Z,2.75
2022-09-21T05:23:44.825Z,2.83
2022-09-21T05:29:09.276Z,2.40
2022-09-21T05:34:49.378Z,2.17
2022-09-21T05:40:07.056Z,2.03
2022-09-21T05:45:05.813Z,1.75
2022-09-21T05:50:25.712Z,2.00
2022-09-21T05:55:34.189Z,1.92
2022-09-21T06:00:45.372Z,1.73
2022-09-21T06:05:59.802Z,3.00
2022-09-21T06:11:25.182Z,2.20
2022-09-21T06:16:27.367Z,2.20
2022-09-21T06:32:39.967Z,1.70
2022-09-21T06:37:44.856Z,1.77
2022-09-21T06:43:42.816Z,1.90
2022-09-21T07:59:57.806Z,2.83
2022-09-21T08:05:08.811Z,2.30
2022-09-21T08:10:25.435Z,3.28
2022-09-21T08:15:46.704Z,2.00
2022-09-21T08:20:57.690Z,2.20
2022-09-21T08:26:09.660Z,1.77
2022-09-21T08:32:00.631Z,2.07
2022-09-21T08:37:37.810Z,2.10
2022-09-21T08:42:55.120Z,1.80
2022-09-21T08:48:05.843Z,6.45
2022-09-21T08:53:07.784Z,2.15
2022-09-21T08:58:24.589Z,2.20
2022-09-21T09:04:08.401Z,2.67
2022-09-21T09:09:59.549Z,1.73
2022-09-21T09:25:44.885Z,1.95
2022-09-21T09:30:44.699Z,2.47
2022-09-21T09:36:07.646Z,2.65
2022-09-21T09:46:32.696Z,2.58
2022-09-21T10:35:15.773Z,2.70
2022-09-21T10:40:35.944Z,2.50
2022-09-21T10:45:56.161Z,2.00
2022-09-21T10:51:05.156Z,2.10
2022-09-21T10:56:28.667Z,2.45
2022-09-21T11:01:28.958Z,2.10
2022-09-21T11:07:49.002Z,1.60
2022-09-21T11:12:58.715Z,1.30
2022-09-21T11:18:19.315Z,1.50
2022-09-21T11:23:28.279Z,2.08
2022-09-21T11:28:35.711Z,2.03
2022-09-21T11:33:46.326Z,1.23
2022-09-21T11:38:56.508Z,1.13
2022-09-21T11:44:19.750Z,1.55
2022-09-21T11:50:33.905Z,1.70
2022-09-21T11:55:31.073Z,1.25
2022-09-21T12:01:09.664Z,2.10
2022-09-21T12:06:25.423Z,1.90
2022-09-21T12:12:01.205Z,1.45
2022-09-21T12:17:16.006Z,2.05
2022-09-21T12:22:45.006Z,1.95
2022-09-21T12:27:46.406Z,1.73
2022-09-21T12:33:05.274Z,2.10
2022-09-21T12:38:12.839Z,1.77
2022-09-21T12:43:23.620Z,1.60
2022-09-21T12:48:31.235Z,1.60
2022-09-21T12:53:39.253Z,1.60
2022-09-21T12:58:57.641Z,1.50
2022-09-21T13:04:14.346Z,2.60
2022-09-21T13:09:15.161Z,2.58
2022-09-21T13:14:20.675Z,1.70
2022-09-21T13:19:23.652Z,1.50
2022-09-21T13:24:28.913Z,1.88
2022-09-21T13:29:49.165Z,2.50
2022-09-21T13:35:27.477Z,2.55
2022-09-21T13:40:49.313Z,1.90
2022-09-21T13:45:56.271Z,2.95
2022-09-21T13:51:27.086Z,2.95
2022-09-21T13:56:58.999Z,2.67
2022-09-21T14:02:12.858Z,2.22
2022-09-21T14:07:10.461Z,1.70
2022-09-21T14:12:25.104Z,2.20
2022-09-21T14:18:25.296Z,2.55
2022-09-21T14:23:38.210Z,2.35
2022-09-21T14:29:00.236Z,2.28
2022-09-21T14:34:04.448Z,2.80
2022-09-21T14:39:09.988Z,3.93
2022-09-21T14:44:39.686Z,4.50
2022-09-21T14:56:41.301Z,2.97
2022-09-21T15:02:30.780Z,3.53
2022-09-21T15:07:57.862Z,2.95
2022-09-21T15:19:08.378Z,2.90
2022-09-21T15:30:22.283Z,2.25
2022-09-21T15:35:54.092Z,2.08
2022-09-21T15:41:22.798Z,2.15
2022-09-21T15:46:28.391Z,2.60
2022-09-21T15:51:39.213Z,2.67
2022-09-21T15:56:40.730Z,3.10
2022-09-21T16:01:44.856Z,2.58
2022-09-21T16:07:00.597Z,2.87
2022-09-21T16:12:43.484Z,2.67
2022-09-21T16:17:58.169Z,3.15
2022-09-21T16:23:13.972Z,3.30
2022-09-21T16:28:49.030Z,2.80
2022-09-21T16:33:59.407Z,3.17
2022-09-21T16:38:59.498Z,2.35
2022-09-21T16:44:00.194Z,2.92
2022-09-21T16:49:04.119Z,2.78
2022-09-21T16:54:24.495Z,2.00
2022-09-21T17:00:22.712Z,2.17
2022-09-21T17:05:21.054Z,2.50
2022-09-21T17:11:24.078Z,2.30
2022-09-21T17:16:45.654Z,2.15
2022-09-21T17:21:51.124Z,3.22
2022-09-21T17:26:50.422Z,2.50
2022-09-21T17:32:54.270Z,2.40
2022-09-21T17:38:00.033Z,1.90
2022-09-21T17:43:30.007Z,2.28
2022-09-21T17:48:33.781Z,2.40
2022-09-21T17:54:05.599Z,2.17
2022-09-21T17:59:33.185Z,1.90
2022-09-21T18:04:36.726Z,2.17
2022-09-21T18:09:35.613Z,1.95
2022-09-21T18:15:26.182Z,2.10
2022-09-21T18:20:38.794Z,1.70
2022-09-21T18:25:46.976Z,1.27
2022-09-21T18:30:56.211Z,1.50
2022-09-21T18:36:08.659Z,1.90
2022-09-21T18:41:33.907Z,1.77
2022-09-21T18:46:39.646Z,1.23
2022-09-21T18:51:47.154Z,1.60
2022-09-21T18:56:45.133Z,1.58
2022-09-21T19:01:47.928Z,1.13
2022-09-21T19:06:49.435Z,1.20
2022-09-21T19:11:57.133Z,1.83
2022-09-21T19:17:10.726Z,1.63
2022-09-21T19:22:14.562Z,1.27
2022-09-21T19:27:43.621Z,1.40
2022-09-21T19:32:49.108Z,1.35
2022-09-21T19:37:48.305Z,1.60
2022-09-21T19:43:20.333Z,1.58
2022-09-21T19:48:52.440Z,1.27
2022-09-21T19:54:13.731Z,1.83
2022-09-21T19:59:31.742Z,1.40
2022-09-21T20:04:42.894Z,1.60
2022-09-21T20:09:53.414Z,1.85
2022-09-21T20:15:15.918Z,1.42
2022-09-21T20:20:29.566Z,1.30
2022-09-21T20:25:46.007Z,1.50
2022-09-21T20:30:56.762Z,1.42
2022-09-21T20:35:59.567Z,1.58
2022-09-21T20:40:59.879Z,1.27
2022-09-21T20:46:11.481Z,1.02
2022-09-21T20:51:10.914Z,1.15
2022-09-21T20:56:08.498Z,1.17
2022-09-21T21:01:09.340Z,1.00
2022-09-21T21:06:20.411Z,0.70
2022-09-21T21:11:19.851Z,1.10
2022-09-21T21:16:20.203Z,1.35
2022-09-21T21:21:17.561Z,1.10
2022-09-21T21:26:14.718Z,1.33
2022-09-21T21:31:12.216Z,1.30
2022-09-21T21:36:14.529Z,1.27
2022-09-21T21:41:32.236Z,1.67
2022-09-21T21:46:30.028Z,1.00
2022-09-21T21:51:30.953Z,1.80
2022-09-21T21:56:31.080Z,1.10
2022-09-21T22:01:32.373Z,1.05
2022-09-21T22:06:44.311Z,1.58
2022-09-21T22:12:04.580Z,1.40
2022-09-21T22:17:02.057Z,1.48
2022-09-21T22:22:00.118Z,1.20
2022-09-21T22:26:57.721Z,1.17
2022-09-21T22:31:55.031Z,1.00
2022-09-21T22:36:52.361Z,1.70
2022-09-21T22:41:50.581Z,1.00
2022-09-21T22:46:50.568Z,1.00
2022-09-21T22:51:57.282Z,1.60
2022-09-21T22:56:55.441Z,1.20
2022-09-21T23:01:52.609Z,1.20
2022-09-21T23:06:55.136Z,1.35
2022-09-21T23:11:55.445Z,1.02
2022-09-21T23:16:52.870Z,1.00
2022-09-21T23:21:59.648Z,1.20
2022-09-21T23:26:57.621Z,1.63
2022-09-21T23:31:54.689Z,1.20
2022-09-21T23:36:51.705Z,1.30
2022-09-21T23:41:48.608Z,1.88
2022-09-21T23:46:46.857Z,1.38
2022-09-21T23:51:43.877Z,1.63
2022-09-21T23:56:41.445Z,1.20
